sensor_id;sensor_type;location;lat;lon;timestamp;temperature;humidity
26408;DHT22;14583;43.604;1.364;2023-07-16T00:00:29;21.70;99.90
26408;DHT22;14583;43.604;1.364;2023-07-16T00:02:55;21.60;99.90
26408;DHT22;14583;43.604;1.364;2023-07-16T00:05:21;21.50;99.90
26408;DHT22;14583;43.604;1.364;2023-07-16T00:07:46;21.50;99.90
26408;DHT22;14583;43.604;1.364;2023-07-16T00:10:12;21.40;99.90
26408;DHT22;14583;43.604;1.364;2023-07-16T00:12:38;21.50;99.90
26408;DHT22;14583;43.604;1.364;2023-07-16T00:15:04;21.50;99.90
26408;DHT22;14583;43.604;1.364;2023-07-16T00:17:30;21.60;99.90
26408;DHT22;14583;43.604;1.364;2023-07-16T00:19:56;21.60;99.90
26408;DHT22;14583;43.604;1.364;2023-07-16T00:22:21;21.50;99.90
26408;DHT22;14583;43.604;1.364;2023-07-16T00:24:47;21.50;99.90
26408;DHT22;14583;43.604;1.364;2023-07-16T00:27:12;21.40;99.90
26408;DHT22;14583;43.604;1.364;2023-07-16T00:29:38;21.50;99.90
26408;DHT22;14583;43.604;1.364;2023-07-16T00:32:04;21.50;99.90
26408;DHT22;14583;43.604;1.364;2023-07-16T00:34:29;21.50;99.90
26408;DHT22;14583;43.604;1.364;2023-07-16T00:36:55;21.50;99.90
26408;DHT22;14583;43.604;1.364;2023-07-16T00:39:29;21.40;99.90
26408;DHT22;14583;43.604;1.364;2023-07-16T00:41:58;21.40;99.90
26408;DHT22;14583;43.604;1.364;2023-07-16T00:44:24;21.30;99.90
26408;DHT22;14583;43.604;1.364;2023-07-16T00:46:50;21.40;99.90
26408;DHT22;14583;43.604;1.364;2023-07-16T00:49:15;21.50;99.90
26408;DHT22;14583;43.604;1.364;2023-07-16T00:51:42;21.40;99.90
26408;DHT22;14583;43.604;1.364;2023-07-16T00:54:08;21.40;99.90
26408;DHT22;14583;43.604;1.364;2023-07-16T00:56:34;21.30;99.90
26408;DHT22;14583;43.604;1.364;2023-07-16T00:59:00;21.20;99.90
26408;DHT22;14583;43.604;1.364;2023-07-16T01:01:26;21.20;99.90
26408;DHT22;14583;43.604;1.364;2023-07-16T01:03:51;21.30;99.90
26408;DHT22;14583;43.604;1.364;2023-07-16T01:06:45;21.30;99.90
26408;DHT22;14583;43.604;1.364;2023-07-16T01:09:20;21.20;99.90
26408;DHT22;14583;43.604;1.364;2023-07-16T01:11:47;21.20;99.90
26408;DHT22;14583;43.604;1.364;2023-07-16T01:14:14;21.30;99.90
26408;DHT22;14583;43.604;1.364;2023-07-16T01:16:42;21.20;99.90
26408;DHT22;14583;43.604;1.364;2023-07-16T01:19:08;21.30;99.90
26408;DHT22;14583;43.604;1.364;2023-07-16T01:24:24;21.40;99.90
26408;DHT22;14583;43.604;1.364;2023-07-16T01:27:10;21.40;99.90
26408;DHT22;14583;43.604;1.364;2023-07-16T01:29:51;21.20;99.90
26408;DHT22;14583;43.604;1.364;2023-07-16T01:32:17;21.20;99.90
26408;DHT22;14583;43.604;1.364;2023-07-16T01:34:43;21.10;99.90
26408;DHT22;14583;43.604;1.364;2023-07-16T01:37:10;21.10;99.90
26408;DHT22;14583;43.604;1.364;2023-07-16T01:39:35;21.20;99.90
26408;DHT22;14583;43.604;1.364;2023-07-16T01:42:02;21.20;99.90
26408;DHT22;14583;43.604;1.364;2023-07-16T01:44:28;21.20;99.90
26408;DHT22;14583;43.604;1.364;2023-07-16T01:47:17;21.10;99.90
26408;DHT22;14583;43.604;1.364;2023-07-16T01:49:44;21.10;99.90
26408;DHT22;14583;43.604;1.364;2023-07-16T01:52:10;21.10;99.90
26408;DHT22;14583;43.604;1.364;2023-07-16T01:54:36;21.10;99.90
26408;DHT22;14583;43.604;1.364;2023-07-16T01:57:02;21.10;99.90
26408;DHT22;14583;43.604;1.364;2023-07-16T01:59:28;21.20;99.90
26408;DHT22;14583;43.604;1.364;2023-07-16T02:01:54;21.00;99.90
26408;DHT22;14583;43.604;1.364;2023-07-16T02:04:20;21.00;99.90
26408;DHT22;14583;43.604;1.364;2023-07-16T02:06:46;21.00;99.90
26408;DHT22;14583;43.604;1.364;2023-07-16T02:09:13;21.00;99.90
26408;DHT22;14583;43.604;1.364;2023-07-16T02:11:39;21.00;99.90
26408;DHT22;14583;43.604;1.364;2023-07-16T02:14:05;21.00;99.90
26408;DHT22;14583;43.604;1.364;2023-07-16T02:16:30;21.00;99.90
26408;DHT22;14583;43.604;1.364;2023-07-16T02:18:56;21.00;99.90
26408;DHT22;14583;43.604;1.364;2023-07-16T02:21:22;21.10;99.90
26408;DHT22;14583;43.604;1.364;2023-07-16T02:23:47;21.10;99.90
26408;DHT22;14583;43.604;1.364;2023-07-16T02:26:13;21.10;99.90
26408;DHT22;14583;43.604;1.364;2023-07-16T02:28:38;21.00;99.90
26408;DHT22;14583;43.604;1.364;2023-07-16T02:31:05;21.10;99.90
26408;DHT22;14583;43.604;1.364;2023-07-16T02:33:30;21.10;99.90
26408;DHT22;14583;43.604;1.364;2023-07-16T02:35:56;21.00;99.90
26408;DHT22;14583;43.604;1.364;2023-07-16T02:38:22;20.80;99.90
26408;DHT22;14583;43.604;1.364;2023-07-16T02:40:48;21.00;99.90
26408;DHT22;14583;43.604;1.364;2023-07-16T02:43:14;20.90;99.90
26408;DHT22;14583;43.604;1.364;2023-07-16T02:45:40;21.00;99.90
26408;DHT22;14583;43.604;1.364;2023-07-16T02:48:06;21.00;99.90
26408;DHT22;14583;43.604;1.364;2023-07-16T02:50:36;20.90;99.90
26408;DHT22;14583;43.604;1.364;2023-07-16T02:53:04;21.00;99.90
26408;DHT22;14583;43.604;1.364;2023-07-16T02:55:30;21.00;99.90
26408;DHT22;14583;43.604;1.364;2023-07-16T02:57:56;21.00;99.90
26408;DHT22;14583;43.604;1.364;2023-07-16T03:00:22;21.00;99.90
26408;DHT22;14583;43.604;1.364;2023-07-16T03:02:48;21.00;99.90
26408;DHT22;14583;43.604;1.364;2023-07-16T03:05:16;20.90;99.90
26408;DHT22;14583;43.604;1.364;2023-07-16T03:07:42;20.90;99.90
26408;DHT22;14583;43.604;1.364;2023-07-16T03:10:08;20.90;99.90
26408;DHT22;14583;43.604;1.364;2023-07-16T03:12:33;20.90;99.90
26408;DHT22;14583;43.604;1.364;2023-07-16T03:14:59;20.90;99.90
26408;DHT22;14583;43.604;1.364;2023-07-16T03:17:25;20.80;99.90
26408;DHT22;14583;43.604;1.364;2023-07-16T03:19:50;20.80;99.90
26408;DHT22;14583;43.604;1.364;2023-07-16T03:22:16;20.80;99.90
26408;DHT22;14583;43.604;1.364;2023-07-16T03:24:41;20.90;99.90
26408;DHT22;14583;43.604;1.364;2023-07-16T03:27:07;20.90;99.90
26408;DHT22;14583;43.604;1.364;2023-07-16T03:29:33;20.90;99.90
26408;DHT22;14583;43.604;1.364;2023-07-16T03:31:59;20.90;99.90
26408;DHT22;14583;43.604;1.364;2023-07-16T03:34:25;20.90;99.90
26408;DHT22;14583;43.604;1.364;2023-07-16T03:36:51;20.90;99.90
26408;DHT22;14583;43.604;1.364;2023-07-16T03:39:17;20.90;99.90
26408;DHT22;14583;43.604;1.364;2023-07-16T03:41:42;20.90;99.90
26408;DHT22;14583;43.604;1.364;2023-07-16T03:44:08;20.90;99.90
26408;DHT22;14583;43.604;1.364;2023-07-16T03:46:34;20.80;99.90
26408;DHT22;14583;43.604;1.364;2023-07-16T03:49:00;20.80;99.90
26408;DHT22;14583;43.604;1.364;2023-07-16T03:51:25;20.80;99.90
26408;DHT22;14583;43.604;1.364;2023-07-16T03:53:51;21.00;99.90
26408;DHT22;14583;43.604;1.364;2023-07-16T03:56:16;21.00;99.90
26408;DHT22;14583;43.604;1.364;2023-07-16T03:58:42;21.00;99.90
26408;DHT22;14583;43.604;1.364;2023-07-16T04:01:08;20.90;99.90
26408;DHT22;14583;43.604;1.364;2023-07-16T04:03:35;20.90;99.90
26408;DHT22;14583;43.604;1.364;2023-07-16T04:06:05;20.70;99.90
26408;DHT22;14583;43.604;1.364;2023-07-16T04:08:31;20.70;99.90
26408;DHT22;14583;43.604;1.364;2023-07-16T04:10:57;20.60;99.90
26408;DHT22;14583;43.604;1.364;2023-07-16T04:13:23;20.60;99.90
26408;DHT22;14583;43.604;1.364;2023-07-16T04:15:49;20.60;99.90
26408;DHT22;14583;43.604;1.364;2023-07-16T04:18:14;20.50;99.90
26408;DHT22;14583;43.604;1.364;2023-07-16T04:20:40;20.60;99.90
26408;DHT22;14583;43.604;1.364;2023-07-16T04:23:06;20.70;99.90
26408;DHT22;14583;43.604;1.364;2023-07-16T04:25:31;20.60;99.90
26408;DHT22;14583;43.604;1.364;2023-07-16T04:27:57;20.60;99.90
26408;DHT22;14583;43.604;1.364;2023-07-16T04:30:23;20.60;99.90
26408;DHT22;14583;43.604;1.364;2023-07-16T04:32:49;20.60;99.90
26408;DHT22;14583;43.604;1.364;2023-07-16T04:35:14;20.70;99.90
26408;DHT22;14583;43.604;1.364;2023-07-16T04:37:40;20.70;99.90
26408;DHT22;14583;43.604;1.364;2023-07-16T04:40:06;20.70;99.90
26408;DHT22;14583;43.604;1.364;2023-07-16T04:42:32;20.70;99.90
26408;DHT22;14583;43.604;1.364;2023-07-16T04:44:57;20.80;99.90
26408;DHT22;14583;43.604;1.364;2023-07-16T04:47:23;20.80;99.90
26408;DHT22;14583;43.604;1.364;2023-07-16T04:49:49;20.80;99.90
26408;DHT22;14583;43.604;1.364;2023-07-16T04:52:14;20.80;99.90
26408;DHT22;14583;43.604;1.364;2023-07-16T04:54:40;20.80;99.90
26408;DHT22;14583;43.604;1.364;2023-07-16T04:57:06;20.80;99.90
26408;DHT22;14583;43.604;1.364;2023-07-16T04:59:32;20.90;99.90
26408;DHT22;14583;43.604;1.364;2023-07-16T05:01:58;20.90;99.90
26408;DHT22;14583;43.604;1.364;2023-07-16T05:04:24;20.80;99.90
26408;DHT22;14583;43.604;1.364;2023-07-16T05:06:51;20.80;99.90
26408;DHT22;14583;43.604;1.364;2023-07-16T05:09:17;20.80;99.90
26408;DHT22;14583;43.604;1.364;2023-07-16T05:11:42;20.80;99.90
26408;DHT22;14583;43.604;1.364;2023-07-16T05:14:08;20.90;99.90
26408;DHT22;14583;43.604;1.364;2023-07-16T05:16:34;20.80;99.90
26408;DHT22;14583;43.604;1.364;2023-07-16T05:18:59;20.80;99.90
26408;DHT22;14583;43.604;1.364;2023-07-16T05:21:25;20.90;99.90
26408;DHT22;14583;43.604;1.364;2023-07-16T05:23:50;20.80;99.90
26408;DHT22;14583;43.604;1.364;2023-07-16T05:26:16;20.80;99.90
26408;DHT22;14583;43.604;1.364;2023-07-16T05:28:42;20.90;99.90
26408;DHT22;14583;43.604;1.364;2023-07-16T05:31:07;20.80;99.90
26408;DHT22;14583;43.604;1.364;2023-07-16T05:33:33;20.90;99.90
26408;DHT22;14583;43.604;1.364;2023-07-16T05:35:59;21.00;99.90
26408;DHT22;14583;43.604;1.364;2023-07-16T05:38:24;20.80;99.90
26408;DHT22;14583;43.604;1.364;2023-07-16T05:40:50;20.90;99.90
26408;DHT22;14583;43.604;1.364;2023-07-16T05:43:16;20.90;99.90
26408;DHT22;14583;43.604;1.364;2023-07-16T05:45:41;21.00;99.90
26408;DHT22;14583;43.604;1.364;2023-07-16T05:48:07;21.00;99.90
26408;DHT22;14583;43.604;1.364;2023-07-16T05:50:32;21.00;99.90
26408;DHT22;14583;43.604;1.364;2023-07-16T05:52:58;21.00;99.90
26408;DHT22;14583;43.604;1.364;2023-07-16T05:55:24;21.00;99.90
26408;DHT22;14583;43.604;1.364;2023-07-16T05:57:50;21.00;99.90
26408;DHT22;14583;43.604;1.364;2023-07-16T06:00:16;21.00;99.90
26408;DHT22;14583;43.604;1.364;2023-07-16T06:02:42;21.10;99.90
26408;DHT22;14583;43.604;1.364;2023-07-16T06:05:08;21.30;99.90
26408;DHT22;14583;43.604;1.364;2023-07-16T06:07:34;21.30;99.90
26408;DHT22;14583;43.604;1.364;2023-07-16T06:10:00;21.20;99.90
26408;DHT22;14583;43.604;1.364;2023-07-16T06:12:25;21.20;99.90
26408;DHT22;14583;43.604;1.364;2023-07-16T06:14:51;21.30;99.90
26408;DHT22;14583;43.604;1.364;2023-07-16T06:17:17;21.40;99.90
26408;DHT22;14583;43.604;1.364;2023-07-16T06:19:43;21.30;99.90
26408;DHT22;14583;43.604;1.364;2023-07-16T06:22:08;21.40;99.90
26408;DHT22;14583;43.604;1.364;2023-07-16T06:24:34;21.50;99.90
26408;DHT22;14583;43.604;1.364;2023-07-16T06:27:00;21.60;99.90
26408;DHT22;14583;43.604;1.364;2023-07-16T06:29:26;21.60;99.90
26408;DHT22;14583;43.604;1.364;2023-07-16T06:31:58;21.60;99.90
26408;DHT22;14583;43.604;1.364;2023-07-16T06:34:27;21.60;99.90
26408;DHT22;14583;43.604;1.364;2023-07-16T06:36:52;21.60;99.90
26408;DHT22;14583;43.604;1.364;2023-07-16T06:39:18;21.60;99.90
26408;DHT22;14583;43.604;1.364;2023-07-16T06:41:44;21.50;99.90
26408;DHT22;14583;43.604;1.364;2023-07-16T06:44:09;21.60;99.90
26408;DHT22;14583;43.604;1.364;2023-07-16T06:46:35;21.70;99.90
26408;DHT22;14583;43.604;1.364;2023-07-16T06:49:01;21.70;99.90
26408;DHT22;14583;43.604;1.364;2023-07-16T06:51:26;21.80;99.90
26408;DHT22;14583;43.604;1.364;2023-07-16T06:53:54;22.00;99.90
26408;DHT22;14583;43.604;1.364;2023-07-16T06:56:20;22.10;99.90
26408;DHT22;14583;43.604;1.364;2023-07-16T06:58:46;22.10;99.90
26408;DHT22;14583;43.604;1.364;2023-07-16T07:01:11;22.10;99.90
26408;DHT22;14583;43.604;1.364;2023-07-16T07:03:37;22.20;99.90
26408;DHT22;14583;43.604;1.364;2023-07-16T07:06:03;22.20;99.90
26408;DHT22;14583;43.604;1.364;2023-07-16T07:08:29;22.10;99.90
26408;DHT22;14583;43.604;1.364;2023-07-16T07:10:55;22.10;99.90
26408;DHT22;14583;43.604;1.364;2023-07-16T07:13:21;22.10;99.90
26408;DHT22;14583;43.604;1.364;2023-07-16T07:15:46;22.10;99.90
26408;DHT22;14583;43.604;1.364;2023-07-16T07:18:12;22.10;99.90
26408;DHT22;14583;43.604;1.364;2023-07-16T07:20:39;22.10;99.90
26408;DHT22;14583;43.604;1.364;2023-07-16T07:23:05;22.10;99.90
26408;DHT22;14583;43.604;1.364;2023-07-16T07:25:31;22.10;99.90
26408;DHT22;14583;43.604;1.364;2023-07-16T07:27:57;22.10;99.90
26408;DHT22;14583;43.604;1.364;2023-07-16T07:30:23;22.20;99.90
26408;DHT22;14583;43.604;1.364;2023-07-16T07:32:48;22.30;99.90
26408;DHT22;14583;43.604;1.364;2023-07-16T07:35:14;22.30;99.90
26408;DHT22;14583;43.604;1.364;2023-07-16T07:37:40;22.30;99.90
26408;DHT22;14583;43.604;1.364;2023-07-16T07:40:06;22.30;99.90
26408;DHT22;14583;43.604;1.364;2023-07-16T07:42:33;22.30;99.90
26408;DHT22;14583;43.604;1.364;2023-07-16T07:44:58;22.30;99.90
26408;DHT22;14583;43.604;1.364;2023-07-16T07:47:24;22.30;99.90
26408;DHT22;14583;43.604;1.364;2023-07-16T07:49:52;22.30;99.90
26408;DHT22;14583;43.604;1.364;2023-07-16T07:52:18;22.30;99.90
26408;DHT22;14583;43.604;1.364;2023-07-16T07:54:43;22.30;99.90
26408;DHT22;14583;43.604;1.364;2023-07-16T07:57:09;22.30;99.90
26408;DHT22;14583;43.604;1.364;2023-07-16T07:59:35;22.40;99.90
26408;DHT22;14583;43.604;1.364;2023-07-16T08:02:01;22.50;99.90
26408;DHT22;14583;43.604;1.364;2023-07-16T08:04:29;22.50;99.90
26408;DHT22;14583;43.604;1.364;2023-07-16T08:06:57;22.60;99.90
26408;DHT22;14583;43.604;1.364;2023-07-16T08:09:25;22.60;99.90
26408;DHT22;14583;43.604;1.364;2023-07-16T08:11:51;22.50;99.90
26408;DHT22;14583;43.604;1.364;2023-07-16T08:14:16;22.40;99.90
26408;DHT22;14583;43.604;1.364;2023-07-16T08:16:42;22.40;99.90
26408;DHT22;14583;43.604;1.364;2023-07-16T08:19:08;22.30;99.90
26408;DHT22;14583;43.604;1.364;2023-07-16T08:21:33;22.40;99.90
26408;DHT22;14583;43.604;1.364;2023-07-16T08:23:59;22.60;99.90
26408;DHT22;14583;43.604;1.364;2023-07-16T08:26:25;22.60;99.90
26408;DHT22;14583;43.604;1.364;2023-07-16T08:28:50;22.60;99.90
26408;DHT22;14583;43.604;1.364;2023-07-16T08:31:16;22.60;99.90
26408;DHT22;14583;43.604;1.364;2023-07-16T08:33:42;22.60;99.90
26408;DHT22;14583;43.604;1.364;2023-07-16T08:36:08;22.60;99.90
26408;DHT22;14583;43.604;1.364;2023-07-16T08:38:34;22.60;99.90
26408;DHT22;14583;43.604;1.364;2023-07-16T08:41:00;22.70;99.90
26408;DHT22;14583;43.604;1.364;2023-07-16T08:43:26;22.70;99.90
26408;DHT22;14583;43.604;1.364;2023-07-16T08:45:53;22.70;99.90
26408;DHT22;14583;43.604;1.364;2023-07-16T08:48:19;22.70;99.90
26408;DHT22;14583;43.604;1.364;2023-07-16T08:50:47;22.70;99.90
26408;DHT22;14583;43.604;1.364;2023-07-16T08:53:15;22.80;99.90
26408;DHT22;14583;43.604;1.364;2023-07-16T08:55:40;22.90;99.90
26408;DHT22;14583;43.604;1.364;2023-07-16T08:58:07;22.90;99.90
26408;DHT22;14583;43.604;1.364;2023-07-16T09:00:33;22.90;99.90
26408;DHT22;14583;43.604;1.364;2023-07-16T09:02:59;22.90;99.90
26408;DHT22;14583;43.604;1.364;2023-07-16T09:05:25;23.00;99.90
26408;DHT22;14583;43.604;1.364;2023-07-16T09:07:51;23.00;99.90
26408;DHT22;14583;43.604;1.364;2023-07-16T09:10:16;23.00;99.90
26408;DHT22;14583;43.604;1.364;2023-07-16T09:12:44;23.00;99.90
26408;DHT22;14583;43.604;1.364;2023-07-16T09:15:11;23.00;99.90
26408;DHT22;14583;43.604;1.364;2023-07-16T09:17:37;23.10;99.90
26408;DHT22;14583;43.604;1.364;2023-07-16T09:20:04;23.10;99.90
26408;DHT22;14583;43.604;1.364;2023-07-16T09:22:33;23.00;98.10
26408;DHT22;14583;43.604;1.364;2023-07-16T09:25:00;22.90;99.90
26408;DHT22;14583;43.604;1.364;2023-07-16T09:27:32;23.00;99.90
26408;DHT22;14583;43.604;1.364;2023-07-16T09:29:58;23.00;99.30
26408;DHT22;14583;43.604;1.364;2023-07-16T09:32:38;23.10;99.20
26408;DHT22;14583;43.604;1.364;2023-07-16T09:35:11;23.20;98.30
26408;DHT22;14583;43.604;1.364;2023-07-16T09:37:38;23.20;98.30
26408;DHT22;14583;43.604;1.364;2023-07-16T09:40:07;23.40;98.50
26408;DHT22;14583;43.604;1.364;2023-07-16T09:42:42;23.40;98.20
26408;DHT22;14583;43.604;1.364;2023-07-16T09:45:13;23.50;98.10
26408;DHT22;14583;43.604;1.364;2023-07-16T09:47:42;23.50;97.80
26408;DHT22;14583;43.604;1.364;2023-07-16T09:50:08;23.50;98.70
26408;DHT22;14583;43.604;1.364;2023-07-16T09:52:34;23.60;99.10
26408;DHT22;14583;43.604;1.364;2023-07-16T09:55:02;23.60;98.10
26408;DHT22;14583;43.604;1.364;2023-07-16T09:57:32;23.50;97.60
26408;DHT22;14583;43.604;1.364;2023-07-16T10:00:02;23.60;97.10
26408;DHT22;14583;43.604;1.364;2023-07-16T10:02:33;23.60;96.60
26408;DHT22;14583;43.604;1.364;2023-07-16T10:04:59;23.60;95.60
26408;DHT22;14583;43.604;1.364;2023-07-16T10:07:25;23.60;96.70
26408;DHT22;14583;43.604;1.364;2023-07-16T10:09:56;23.60;97.70
26408;DHT22;14583;43.604;1.364;2023-07-16T10:12:26;23.60;97.20
26408;DHT22;14583;43.604;1.364;2023-07-16T10:14:54;23.70;97.50
26408;DHT22;14583;43.604;1.364;2023-07-16T10:17:25;23.70;96.60
26408;DHT22;14583;43.604;1.364;2023-07-16T10:19:56;23.80;96.20
26408;DHT22;14583;43.604;1.364;2023-07-16T10:22:46;23.90;96.80
26408;DHT22;14583;43.604;1.364;2023-07-16T10:27:45;23.90;96.60
26408;DHT22;14583;43.604;1.364;2023-07-16T10:30:11;23.90;95.50
26408;DHT22;14583;43.604;1.364;2023-07-16T10:32:37;24.00;94.90
26408;DHT22;14583;43.604;1.364;2023-07-16T10:35:05;24.00;94.30
26408;DHT22;14583;43.604;1.364;2023-07-16T10:37:31;24.00;93.50
26408;DHT22;14583;43.604;1.364;2023-07-16T10:39:58;24.00;93.90
26408;DHT22;14583;43.604;1.364;2023-07-16T10:42:25;24.10;93.20
26408;DHT22;14583;43.604;1.364;2023-07-16T10:44:52;24.20;95.10
26408;DHT22;14583;43.604;1.364;2023-07-16T10:47:35;24.10;94.70
26408;DHT22;14583;43.604;1.364;2023-07-16T10:50:05;24.10;94.40
26408;DHT22;14583;43.604;1.364;2023-07-16T10:52:31;24.10;93.40
26408;DHT22;14583;43.604;1.364;2023-07-16T10:54:57;24.10;93.60
26408;DHT22;14583;43.604;1.364;2023-07-16T10:57:27;24.20;93.50
26408;DHT22;14583;43.604;1.364;2023-07-16T10:59:57;24.10;92.50
26408;DHT22;14583;43.604;1.364;2023-07-16T11:02:24;24.10;93.60
26408;DHT22;14583;43.604;1.364;2023-07-16T11:04:51;24.30;94.30
26408;DHT22;14583;43.604;1.364;2023-07-16T11:07:20;24.40;93.60
26408;DHT22;14583;43.604;1.364;2023-07-16T11:09:48;24.40;93.50
26408;DHT22;14583;43.604;1.364;2023-07-16T11:12:17;24.40;92.90
26408;DHT22;14583;43.604;1.364;2023-07-16T11:14:47;24.50;92.70
26408;DHT22;14583;43.604;1.364;2023-07-16T11:17:14;24.50;92.90
26408;DHT22;14583;43.604;1.364;2023-07-16T11:19:44;24.50;94.10
26408;DHT22;14583;43.604;1.364;2023-07-16T11:22:09;24.40;91.90
26408;DHT22;14583;43.604;1.364;2023-07-16T11:24:40;24.30;91.30
26408;DHT22;14583;43.604;1.364;2023-07-16T11:27:19;24.40;91.00
26408;DHT22;14583;43.604;1.364;2023-07-16T11:29:53;24.50;91.70
26408;DHT22;14583;43.604;1.364;2023-07-16T11:35:01;24.50;91.30
26408;DHT22;14583;43.604;1.364;2023-07-16T11:37:28;24.60;92.40
26408;DHT22;14583;43.604;1.364;2023-07-16T11:39:56;24.60;91.20
26408;DHT22;14583;43.604;1.364;2023-07-16T11:42:39;24.60;90.60
26408;DHT22;14583;43.604;1.364;2023-07-16T11:45:15;24.70;91.70
26408;DHT22;14583;43.604;1.364;2023-07-16T11:47:40;24.70;91.60
26408;DHT22;14583;43.604;1.364;2023-07-16T11:50:07;24.70;91.70
26408;DHT22;14583;43.604;1.364;2023-07-16T11:52:32;24.80;91.50
26408;DHT22;14583;43.604;1.364;2023-07-16T11:54:59;24.80;91.70
26408;DHT22;14583;43.604;1.364;2023-07-16T11:57:30;24.70;91.00
26408;DHT22;14583;43.604;1.364;2023-07-16T11:59:56;24.90;90.30
26408;DHT22;14583;43.604;1.364;2023-07-16T12:02:22;25.00;91.00
26408;DHT22;14583;43.604;1.364;2023-07-16T12:04:48;25.10;90.20
26408;DHT22;14583;43.604;1.364;2023-07-16T12:07:14;25.30;91.20
26408;DHT22;14583;43.604;1.364;2023-07-16T12:09:40;25.30;90.30
26408;DHT22;14583;43.604;1.364;2023-07-16T12:12:06;25.30;90.20
26408;DHT22;14583;43.604;1.364;2023-07-16T12:14:32;25.50;90.70
26408;DHT22;14583;43.604;1.364;2023-07-16T12:16:58;25.50;90.50
26408;DHT22;14583;43.604;1.364;2023-07-16T12:19:24;25.50;90.40
26408;DHT22;14583;43.604;1.364;2023-07-16T12:21:50;25.50;90.00
26408;DHT22;14583;43.604;1.364;2023-07-16T12:24:16;25.50;90.00
26408;DHT22;14583;43.604;1.364;2023-07-16T12:26:42;25.40;88.80
26408;DHT22;14583;43.604;1.364;2023-07-16T12:29:08;25.40;88.70
26408;DHT22;14583;43.604;1.364;2023-07-16T12:31:34;25.40;90.00
26408;DHT22;14583;43.604;1.364;2023-07-16T12:34:00;25.50;89.30
26408;DHT22;14583;43.604;1.364;2023-07-16T12:36:27;25.50;89.30
26408;DHT22;14583;43.604;1.364;2023-07-16T12:38:53;25.50;88.10
26408;DHT22;14583;43.604;1.364;2023-07-16T12:41:19;25.30;86.70
26408;DHT22;14583;43.604;1.364;2023-07-16T12:43:45;25.30;87.90
26408;DHT22;14583;43.604;1.364;2023-07-16T12:46:11;25.50;88.90
26408;DHT22;14583;43.604;1.364;2023-07-16T12:48:36;25.40;87.50
26408;DHT22;14583;43.604;1.364;2023-07-16T12:51:02;25.50;88.10
26408;DHT22;14583;43.604;1.364;2023-07-16T12:53:28;25.60;88.60
26408;DHT22;14583;43.604;1.364;2023-07-16T12:55:54;25.60;87.20
26408;DHT22;14583;43.604;1.364;2023-07-16T12:58:19;25.60;89.40
26408;DHT22;14583;43.604;1.364;2023-07-16T13:00:45;25.70;89.60
26408;DHT22;14583;43.604;1.364;2023-07-16T13:03:11;25.80;89.30
26408;DHT22;14583;43.604;1.364;2023-07-16T13:05:40;25.90;90.80
26408;DHT22;14583;43.604;1.364;2023-07-16T13:08:06;26.00;90.50
26408;DHT22;14583;43.604;1.364;2023-07-16T13:10:32;26.00;88.20
26408;DHT22;14583;43.604;1.364;2023-07-16T13:12:58;26.00;88.10
26408;DHT22;14583;43.604;1.364;2023-07-16T13:15:23;26.10;87.90
26408;DHT22;14583;43.604;1.364;2023-07-16T13:17:49;26.30;89.10
26408;DHT22;14583;43.604;1.364;2023-07-16T13:20:15;26.40;89.90
26408;DHT22;14583;43.604;1.364;2023-07-16T13:22:41;26.40;88.70
26408;DHT22;14583;43.604;1.364;2023-07-16T13:25:07;26.50;89.10
26408;DHT22;14583;43.604;1.364;2023-07-16T13:27:32;26.40;86.50
26408;DHT22;14583;43.604;1.364;2023-07-16T13:29:58;26.30;85.70
26408;DHT22;14583;43.604;1.364;2023-07-16T13:32:24;26.50;86.50
26408;DHT22;14583;43.604;1.364;2023-07-16T13:34:49;26.70;88.80
26408;DHT22;14583;43.604;1.364;2023-07-16T13:37:15;26.80;88.50
26408;DHT22;14583;43.604;1.364;2023-07-16T13:39:41;26.80;88.50
26408;DHT22;14583;43.604;1.364;2023-07-16T13:42:06;26.80;86.10
26408;DHT22;14583;43.604;1.364;2023-07-16T13:44:33;26.80;88.20
26408;DHT22;14583;43.604;1.364;2023-07-16T13:46:59;26.90;89.90
26408;DHT22;14583;43.604;1.364;2023-07-16T13:49:24;27.00;86.20
26408;DHT22;14583;43.604;1.364;2023-07-16T13:51:50;27.10;88.50
26408;DHT22;14583;43.604;1.364;2023-07-16T13:54:15;27.30;88.70
26408;DHT22;14583;43.604;1.364;2023-07-16T13:56:44;27.40;87.50
26408;DHT22;14583;43.604;1.364;2023-07-16T13:59:09;27.40;88.70
26408;DHT22;14583;43.604;1.364;2023-07-16T14:01:39;27.60;88.90
26408;DHT22;14583;43.604;1.364;2023-07-16T14:04:05;27.60;87.60
26408;DHT22;14583;43.604;1.364;2023-07-16T14:06:31;27.70;87.60
26408;DHT22;14583;43.604;1.364;2023-07-16T14:08:57;27.90;89.40
26408;DHT22;14583;43.604;1.364;2023-07-16T14:11:23;27.90;85.40
26408;DHT22;14583;43.604;1.364;2023-07-16T14:13:49;27.90;87.40
26408;DHT22;14583;43.604;1.364;2023-07-16T14:16:19;28.10;90.50
26408;DHT22;14583;43.604;1.364;2023-07-16T14:18:45;28.10;86.40
26408;DHT22;14583;43.604;1.364;2023-07-16T14:21:11;28.10;87.10
26408;DHT22;14583;43.604;1.364;2023-07-16T14:23:36;28.30;87.40
26408;DHT22;14583;43.604;1.364;2023-07-16T14:26:02;28.50;88.20
26408;DHT22;14583;43.604;1.364;2023-07-16T14:28:28;28.70;90.50
26408;DHT22;14583;43.604;1.364;2023-07-16T14:30:54;28.80;88.70
26408;DHT22;14583;43.604;1.364;2023-07-16T14:33:20;28.80;87.50
26408;DHT22;14583;43.604;1.364;2023-07-16T14:35:46;29.00;88.00
26408;DHT22;14583;43.604;1.364;2023-07-16T14:38:15;29.20;86.90
26408;DHT22;14583;43.604;1.364;2023-07-16T14:40:40;29.30;87.20
26408;DHT22;14583;43.604;1.364;2023-07-16T14:43:07;29.20;83.00
26408;DHT22;14583;43.604;1.364;2023-07-16T14:45:34;29.30;85.90
26408;DHT22;14583;43.604;1.364;2023-07-16T14:48:01;29.50;85.50
26408;DHT22;14583;43.604;1.364;2023-07-16T14:50:27;29.60;87.70
26408;DHT22;14583;43.604;1.364;2023-07-16T14:52:53;29.60;86.20
26408;DHT22;14583;43.604;1.364;2023-07-16T14:55:19;29.70;85.40
26408;DHT22;14583;43.604;1.364;2023-07-16T14:57:45;29.60;81.00
26408;DHT22;14583;43.604;1.364;2023-07-16T15:00:11;29.50;83.90
26408;DHT22;14583;43.604;1.364;2023-07-16T15:02:37;29.70;84.50
26408;DHT22;14583;43.604;1.364;2023-07-16T15:05:04;29.80;84.40
26408;DHT22;14583;43.604;1.364;2023-07-16T15:07:32;30.00;84.70
26408;DHT22;14583;43.604;1.364;2023-07-16T15:10:00;30.10;85.60
26408;DHT22;14583;43.604;1.364;2023-07-16T15:12:25;30.20;82.80
26408;DHT22;14583;43.604;1.364;2023-07-16T15:14:51;30.20;82.30
26408;DHT22;14583;43.604;1.364;2023-07-16T15:17:17;30.30;85.00
26408;DHT22;14583;43.604;1.364;2023-07-16T15:19:43;30.50;85.30
26408;DHT22;14583;43.604;1.364;2023-07-16T15:22:09;30.70;85.40
26408;DHT22;14583;43.604;1.364;2023-07-16T15:24:35;30.90;81.80
26408;DHT22;14583;43.604;1.364;2023-07-16T15:27:01;30.90;82.60
26408;DHT22;14583;43.604;1.364;2023-07-16T15:29:27;30.90;81.00
26408;DHT22;14583;43.604;1.364;2023-07-16T15:31:53;31.10;81.60
26408;DHT22;14583;43.604;1.364;2023-07-16T15:34:19;31.40;84.30